createdAt,value
2023-01-09T00:02:27.292Z,15.88
2023-01-09T00:07:31.957Z,16.10
2023-01-09T00:12:35.650Z,16.21
2023-01-09T00:17:38.951Z,16.21
2023-01-09T00:22:43.785Z,16.38
2023-01-09T00:27:48.239Z,16.34
2023-01-09T00:32:51.641Z,16.51
2023-01-09T00:37:56.340Z,16.81
2023-01-09T00:42:59.858Z,16.70
2023-01-09T00:48:05.071Z,16.72
2023-01-09T00:53:13.323Z,16.64
2023-01-09T00:58:16.655Z,16.28
2023-01-09T01:03:19.975Z,16.54
2023-01-09T01:08:24.694Z,16.65
2023-01-09T01:13:27.995Z,16.71
2023-01-09T01:18:31.286Z,16.66
2023-01-09T01:23:36.388Z,16.72
2023-01-09T01:28:39.931Z,16.65
2023-01-09T01:33:43.243Z,16.64
2023-01-09T01:38:47.858Z,16.59
2023-01-09T01:43:53.425Z,16.61
2023-01-09T01:48:59.521Z,16.49
2023-01-09T01:54:06.858Z,16.61
2023-01-09T02:05:06.228Z,16.46
2023-01-09T02:10:11.477Z,16.56
2023-01-09T02:15:15.591Z,16.56
2023-01-09T02:20:40.224Z,16.55
2023-01-09T02:26:09.294Z,16.55
2023-01-09T02:31:18.436Z,16.57
2023-01-09T02:36:27.880Z,16.52
2023-01-09T02:41:35.575Z,16.49
2023-01-09T02:46:40.283Z,16.54
2023-01-09T02:51:52.445Z,16.56
2023-01-09T02:57:22.376Z,16.10
2023-01-09T03:02:38.350Z,16.36
2023-01-09T03:07:45.432Z,16.34
2023-01-09T03:12:49.812Z,16.35
2023-01-09T03:17:55.460Z,16.24
2023-01-09T03:23:01.302Z,16.48
2023-01-09T03:28:06.631Z,16.28
2023-01-09T03:33:11.232Z,16.38
2023-01-09T03:38:14.582Z,16.14
2023-01-09T03:43:18.246Z,16.37
2023-01-09T03:48:23.206Z,16.21
2023-01-09T03:53:28.603Z,16.73
2023-01-09T03:58:31.936Z,16.87
2023-01-09T04:03:36.956Z,16.82
2023-01-09T04:08:40.291Z,17.03
2023-01-09T04:13:44.936Z,16.97
2023-01-09T04:18:49.714Z,17.05
2023-01-09T04:23:53.040Z,16.30
2023-01-09T04:28:56.395Z,16.36
2023-01-09T04:34:01.015Z,16.39
2023-01-09T04:39:05.553Z,15.87
2023-01-09T04:44:08.883Z,15.90
2023-01-09T04:49:13.659Z,15.75
2023-01-09T04:54:17.012Z,15.78
2023-01-09T04:59:20.387Z,15.90
2023-01-09T05:04:25.085Z,16.05
2023-01-09T05:09:28.600Z,15.97
2023-01-09T05:14:31.998Z,15.68
2023-01-09T05:19:36.652Z,15.58
2023-01-09T05:24:39.953Z,15.72
2023-01-09T05:29:43.312Z,15.45
2023-01-09T05:34:47.972Z,15.01
2023-01-09T05:39:51.379Z,15.13
2023-01-09T05:44:54.722Z,15.49
2023-01-09T05:50:00.178Z,15.53
2023-01-09T05:55:03.524Z,15.61
2023-01-09T06:00:08.284Z,15.64
2023-01-09T06:05:12.979Z,15.61
2023-01-09T06:10:16.549Z,15.84
2023-01-09T06:15:20.745Z,15.03
2023-01-09T06:20:25.416Z,15.66
2023-01-09T06:25:28.716Z,15.26
2023-01-09T06:30:32.004Z,15.07
2023-01-09T06:35:36.674Z,15.95
2023-01-09T06:40:40.187Z,15.70
2023-01-09T06:45:44.363Z,15.54
2023-01-09T06:50:49.927Z,15.52
2023-01-09T06:55:53.232Z,15.70
2023-01-09T07:00:56.577Z,15.40
2023-01-09T07:06:01.259Z,15.69
2023-01-09T07:11:04.588Z,15.67
2023-01-09T07:16:08.657Z,15.74
2023-01-09T07:21:13.338Z,15.60
2023-01-09T07:26:16.669Z,15.35
2023-01-09T07:31:19.977Z,15.25
2023-01-09T07:36:24.674Z,15.04
2023-01-09T07:41:28.459Z,14.54
2023-01-09T07:46:31.832Z,14.59
2023-01-09T07:51:39.019Z,14.74
2023-01-09T07:56:42.357Z,14.82
2023-01-09T08:01:45.735Z,14.78
2023-01-09T08:06:50.491Z,14.28
2023-01-09T08:11:54.176Z,14.73
2023-01-09T08:16:58.284Z,14.95
2023-01-09T08:22:02.922Z,15.08
2023-01-09T08:27:06.251Z,15.08
2023-01-09T08:32:09.806Z,14.88
2023-01-09T08:37:14.526Z,14.98
2023-01-09T08:42:35.320Z,14.85
2023-01-09T08:47:39.381Z,15.06
2023-01-09T08:52:44.020Z,14.58
2023-01-09T08:57:50.589Z,13.78
2023-01-09T09:02:54.536Z,13.86
2023-01-09T09:08:00.149Z,14.18
2023-01-09T09:13:03.735Z,13.83
2023-01-09T09:18:09.128Z,14.67
2023-01-09T09:23:13.779Z,13.77
2023-01-09T09:28:17.115Z,14.73
2023-01-09T09:33:20.511Z,15.23
2023-01-09T09:38:25.259Z,14.28
2023-01-09T09:44:02.055Z,14.87
2023-01-09T09:49:09.811Z,14.47
2023-01-09T09:54:18.393Z,15.40
2023-01-09T09:59:26.670Z,14.30
2023-01-09T10:04:33.087Z,14.94
2023-01-09T10:09:45.790Z,15.15
2023-01-09T10:14:49.320Z,15.36
2023-01-09T10:20:08.031Z,15.23
2023-01-09T10:25:23.885Z,15.31
2023-01-09T10:30:34.246Z,14.84
2023-01-09T10:35:50.370Z,15.84
2023-01-09T10:41:01.439Z,15.62
2023-01-09T10:46:08.460Z,16.49
2023-01-09T10:51:17.812Z,15.30
2023-01-09T10:56:24.760Z,15.60
2023-01-09T11:01:30.134Z,15.95
2023-01-09T11:06:40.789Z,16.02
2023-01-09T11:11:45.897Z,15.92
2023-01-09T11:16:53.735Z,15.76
2023-01-09T11:22:07.622Z,16.15
2023-01-09T11:27:23.545Z,16.41
2023-01-09T11:32:27.118Z,16.46
2023-01-09T11:37:31.585Z,16.73
2023-01-09T11:42:54.576Z,17.03
2023-01-09T11:47:58.091Z,17.33
2023-01-09T11:53:16.101Z,17.60
2023-01-09T11:58:22.094Z,17.60
2023-01-09T12:03:38.267Z,17.24
2023-01-09T12:08:47.586Z,17.42
2023-01-09T12:14:14.427Z,17.44
2023-01-09T12:19:37.754Z,17.93
2023-01-09T12:25:05.702Z,17.78
2023-01-09T12:30:22.588Z,17.63
2023-01-09T12:35:33.717Z,18.00
2023-01-09T12:41:08.114Z,17.84
2023-01-09T12:46:16.752Z,16.96
2023-01-09T12:51:29.792Z,17.64
2023-01-09T12:56:35.712Z,17.32
2023-01-09T13:01:43.521Z,17.26
2023-01-09T13:06:51.079Z,17.30
2023-01-09T13:12:01.918Z,17.30
2023-01-09T13:17:09.363Z,16.33
2023-01-09T13:22:14.629Z,17.07
2023-01-09T13:27:19.877Z,16.74
2023-01-09T13:32:33.167Z,17.09
2023-01-09T13:37:37.728Z,17.57
2023-01-09T13:42:46.161Z,16.55
2023-01-09T13:48:19.153Z,16.96
2023-01-09T13:53:44.201Z,17.47
2023-01-09T13:59:08.303Z,16.79
2023-01-09T14:04:41.216Z,16.62
2023-01-09T14:09:48.812Z,15.69
2023-01-09T14:14:53.770Z,16.14
2023-01-09T14:19:59.805Z,16.40
2023-01-09T14:25:07.487Z,16.25
2023-01-09T14:30:34.115Z,16.14
2023-01-09T14:35:46.660Z,15.67
2023-01-09T14:40:53.235Z,15.65
2023-01-09T14:46:00.492Z,15.38
2023-01-09T14:51:08.541Z,15.72
2023-01-09T14:56:26.505Z,16.02
2023-01-09T15:01:32.541Z,15.79
2023-01-09T15:06:38.836Z,15.27
2023-01-09T15:11:42.218Z,15.02
2023-01-09T15:16:46.053Z,15.47
2023-01-09T15:22:00.225Z,15.18
2023-01-09T15:27:10.755Z,14.53
2023-01-09T15:32:18.151Z,14.88
2023-01-09T15:37:28.192Z,15.14
2023-01-09T15:42:51.511Z,15.38
2023-01-09T15:47:55.183Z,15.16
2023-01-09T15:52:59.942Z,15.33
2023-01-09T15:58:03.768Z,14.18
2023-01-09T16:03:20.135Z,15.33
2023-01-09T16:08:30.375Z,15.23
2023-01-09T16:13:39.933Z,15.67
2023-01-09T16:18:51.242Z,15.64
2023-01-09T16:23:57.505Z,15.21
2023-01-09T16:29:34.254Z,15.16
2023-01-09T16:34:37.844Z,15.15
2023-01-09T16:39:42.727Z,15.15
2023-01-09T16:44:46.089Z,15.31
2023-01-09T16:49:49.467Z,15.44
2023-01-09T16:54:54.114Z,15.42
2023-01-09T17:00:00.119Z,14.83
2023-01-09T17:05:03.475Z,15.49
2023-01-09T17:10:18.776Z,15.15
2023-01-09T17:15:22.124Z,14.92
2023-01-09T17:20:25.577Z,15.50
2023-01-09T17:25:47.613Z,14.61
2023-01-09T17:30:50.943Z,14.75
2023-01-09T17:35:54.405Z,15.41
2023-01-09T17:40:59.034Z,14.73
2023-01-09T17:46:02.346Z,14.69
2023-01-09T17:51:05.806Z,13.91
2023-01-09T17:56:16.117Z,13.93
2023-01-09T18:01:20.500Z,14.25
2023-01-09T18:06:24.873Z,14.30
2023-01-09T18:11:29.577Z,14.63
2023-01-09T18:16:32.908Z,14.80
2023-01-09T18:21:36.396Z,15.03
2023-01-09T18:26:41.179Z,15.30
2023-01-09T18:31:44.656Z,15.27
2023-01-09T18:36:48.399Z,15.58
2023-01-09T18:41:53.056Z,15.83
2023-01-09T18:46:56.421Z,15.80
2023-01-09T18:51:59.837Z,15.88
2023-01-09T18:57:04.711Z,15.54
2023-01-09T19:02:10.331Z,15.60
2023-01-09T19:07:13.650Z,15.35
2023-01-09T19:12:18.350Z,15.36
2023-01-09T19:17:21.733Z,14.81
2023-01-09T19:22:26.715Z,15.06
2023-01-09T19:27:31.499Z,14.96
2023-01-09T19:32:35.055Z,13.95
2023-01-09T19:37:38.474Z,14.08
2023-01-09T19:42:43.175Z,14.08
2023-01-09T19:47:47.391Z,14.71
2023-01-09T19:52:51.531Z,14.06
2023-01-09T19:57:56.176Z,14.44
2023-01-09T20:02:59.527Z,14.96
2023-01-09T20:08:06.286Z,14.76
2023-01-09T20:13:10.894Z,14.68
2023-01-09T20:18:14.213Z,15.13
2023-01-09T20:23:19.370Z,14.70
2023-01-09T20:28:24.042Z,14.84
2023-01-09T20:33:27.620Z,14.35
2023-01-09T20:38:30.963Z,14.90
2023-01-09T20:43:35.963Z,14.83
2023-01-09T20:48:39.256Z,15.11
2023-01-09T20:53:45.042Z,14.58
2023-01-09T20:58:50.097Z,14.45
2023-01-09T21:03:54.403Z,14.93
2023-01-09T21:08:57.770Z,14.90
2023-01-09T21:14:02.370Z,15.10
2023-01-09T21:19:05.685Z,14.80
2023-01-09T21:24:09.348Z,14.88
2023-01-09T21:29:21.975Z,15.23
2023-01-09T21:34:26.242Z,14.74
2023-01-09T21:39:29.564Z,15.17
2023-01-09T21:44:51.523Z,15.21
2023-01-09T21:49:54.852Z,15.01
2023-01-09T21:54:58.530Z,14.93
2023-01-09T22:00:03.264Z,14.99
2023-01-09T22:05:15.083Z,14.73
2023-01-09T22:10:18.614Z,14.68
2023-01-09T22:15:23.317Z,14.40
2023-01-09T22:20:26.653Z,14.83
2023-01-09T22:25:30.059Z,14.36
2023-01-09T22:30:34.805Z,14.49
2023-01-09T22:35:38.435Z,14.59
2023-01-09T22:40:42.170Z,14.98
2023-01-09T22:45:46.872Z,14.84
2023-01-09T22:50:50.215Z,14.97
2023-01-09T22:55:56.540Z,15.03
2023-01-09T23:01:01.371Z,15.14
2023-01-09T23:06:06.425Z,15.23
2023-01-09T23:11:11.356Z,14.81
2023-01-09T23:16:16.038Z,14.84
2023-01-09T23:21:19.453Z,15.28
2023-01-09T23:26:22.899Z,15.35
2023-01-09T23:31:27.812Z,15.38
2023-01-09T23:36:31.701Z,15.30
2023-01-09T23:41:52.817Z,14.75
2023-01-09T23:46:57.493Z,14.86
2023-01-09T23:52:02.313Z,14.54
2023-01-09T23:57:05.774Z,14.55
